createdAt,value
2022-12-14T00:00:32.702Z,51.20
2022-12-14T00:05:35.021Z,49.87
2022-12-14T00:10:38.231Z,49.23
2022-12-14T00:15:52.321Z,48.50
2022-12-14T00:21:03.206Z,52.33
2022-12-14T00:26:11.637Z,50.17
2022-12-14T00:31:13.616Z,47.63
2022-12-14T00:36:20.365Z,48.43
2022-12-14T00:41:22.272Z,50.03
2022-12-14T00:46:26.086Z,48.87
2022-12-14T00:51:32.819Z,47.20
2022-12-14T00:56:35.822Z,49.70
2022-12-14T01:01:37.719Z,46.90
2022-12-14T01:06:43.696Z,47.47
2022-12-14T01:11:48.168Z,47.47
2022-12-14T01:16:50.076Z,48.33
2022-12-14T01:21:54.198Z,46.17
2022-12-14T01:26:59.227Z,48.47
2022-12-14T01:32:05.924Z,45.93
2022-12-14T01:37:07.621Z,45.97
2022-12-14T01:42:13.612Z,47.23
2022-12-14T01:47:19.695Z,48.10
2022-12-14T01:52:30.595Z,48.67
2022-12-14T01:57:41.682Z,47.90
2022-12-14T02:02:49.406Z,45.90
2022-12-14T02:07:53.312Z,45.53
2022-12-14T02:13:12.104Z,48.33
2022-12-14T02:18:24.995Z,46.80
2022-12-14T02:23:36.985Z,45.90
2022-12-14T02:28:44.731Z,44.17
2022-12-14T02:34:23.825Z,44.27
2022-12-14T02:39:51.734Z,44.67
2022-12-14T02:45:09.020Z,44.57
2022-12-14T02:50:37.358Z,43.70
2022-12-14T02:55:51.315Z,44.10
2022-12-14T03:00:58.638Z,44.83
2022-12-14T03:06:04.921Z,44.03
2022-12-14T03:11:09.890Z,45.97
2022-12-14T03:21:48.154Z,42.37
2022-12-14T03:26:56.979Z,41.40
2022-12-14T03:32:05.820Z,41.33
2022-12-14T03:37:13.960Z,41.13
2022-12-14T03:42:22.989Z,40.37
2022-12-14T03:47:44.969Z,41.97
2022-12-14T03:53:24.163Z,38.43
2022-12-14T03:58:39.285Z,40.30
2022-12-14T04:04:13.406Z,39.53
2022-12-14T04:09:35.157Z,40.17
2022-12-14T04:15:05.741Z,38.93
2022-12-14T04:20:31.161Z,37.23
2022-12-14T04:25:54.066Z,37.60
2022-12-14T04:31:15.770Z,39.10
2022-12-14T04:36:29.082Z,37.70
2022-12-14T04:41:35.116Z,36.40
2022-12-14T04:46:41.009Z,35.97
2022-12-14T04:51:51.055Z,36.20
2022-12-14T04:57:34.054Z,34.33
2022-12-14T05:03:05.934Z,35.83
2022-12-14T05:08:19.002Z,36.30
2022-12-14T05:13:26.169Z,37.07
2022-12-14T05:18:30.328Z,36.60
2022-12-14T05:23:32.063Z,35.73
2022-12-14T05:28:34.006Z,37.87
2022-12-14T05:33:35.701Z,35.93
2022-12-14T05:38:39.833Z,34.97
2022-12-14T05:43:43.868Z,34.80
2022-12-14T05:48:49.500Z,34.17
2022-12-14T05:53:54.861Z,33.20
2022-12-14T05:58:56.631Z,32.53
2022-12-14T06:04:00.709Z,33.27
2022-12-14T06:09:10.273Z,32.87
2022-12-14T06:14:15.741Z,31.37
2022-12-14T06:19:21.851Z,32.07
2022-12-14T06:24:25.709Z,29.23
2022-12-14T06:29:27.441Z,30.53
2022-12-14T06:34:29.988Z,31.17
2022-12-14T06:39:36.330Z,30.03
2022-12-14T06:44:38.195Z,29.27
2022-12-14T06:49:42.622Z,31.00
2022-12-14T06:54:44.930Z,30.27
2022-12-14T06:59:50.865Z,31.53
2022-12-14T07:04:58.657Z,31.23
2022-12-14T07:10:03.932Z,31.60
2022-12-14T07:15:06.286Z,29.60
2022-12-14T07:20:12.822Z,29.93
2022-12-14T07:25:17.907Z,30.03
2022-12-14T07:30:21.962Z,28.20
2022-12-14T07:35:28.024Z,30.20
2022-12-14T07:40:33.964Z,30.47
2022-12-14T07:45:38.227Z,30.10
2022-12-14T07:50:40.082Z,29.50
2022-12-14T07:55:41.857Z,30.03
2022-12-14T08:00:47.934Z,30.80
2022-12-14T08:05:49.889Z,28.47
2022-12-14T08:10:54.601Z,30.30
2022-12-14T08:16:06.814Z,28.40
2022-12-14T08:21:12.714Z,36.63
2022-12-14T08:26:20.914Z,30.53
2022-12-14T08:31:25.451Z,28.53
2022-12-14T08:36:30.353Z,29.47
2022-12-14T08:41:32.413Z,29.47
2022-12-14T08:46:38.272Z,29.30
2022-12-14T08:51:40.277Z,28.77
2022-12-14T08:56:45.083Z,27.87
2022-12-14T09:01:48.928Z,24.90
2022-12-14T09:06:54.469Z,26.10
2022-12-14T09:12:06.589Z,27.23
2022-12-14T09:17:11.932Z,25.93
2022-12-14T09:22:17.523Z,26.07
2022-12-14T09:27:22.541Z,23.70
2022-12-14T09:32:27.148Z,23.33
2022-12-14T09:37:32.532Z,24.63
2022-12-14T09:42:50.733Z,23.47
2022-12-14T09:48:19.043Z,23.30
2022-12-14T09:53:23.519Z,21.43
2022-12-14T09:58:30.281Z,22.77
2022-12-14T10:03:58.445Z,22.00
2022-12-14T10:09:15.192Z,20.80
2022-12-14T10:14:22.216Z,21.43
2022-12-14T10:19:36.483Z,21.20
2022-12-14T10:24:49.571Z,18.50
2022-12-14T10:30:01.915Z,17.33
2022-12-14T10:35:18.862Z,19.13
2022-12-14T10:40:34.077Z,17.80
2022-12-14T10:45:52.399Z,16.27
2022-12-14T10:50:57.657Z,16.87
2022-12-14T10:56:08.866Z,15.43
2022-12-14T11:01:14.473Z,14.13
2022-12-14T11:06:19.402Z,14.60
2022-12-14T11:11:23.372Z,12.73
2022-12-14T11:16:39.983Z,13.10
2022-12-14T11:21:41.876Z,12.23
2022-12-14T11:26:46.642Z,11.53
2022-12-14T11:31:55.392Z,10.83
2022-12-14T11:37:11.528Z,9.87
2022-12-14T11:42:20.127Z,9.90
2022-12-14T11:47:24.426Z,10.33
2022-12-14T11:52:43.096Z,15.67
2022-12-14T11:57:56.321Z,20.20
2022-12-14T12:03:06.422Z,11.10
2022-12-14T12:08:22.847Z,12.40
2022-12-14T12:13:29.096Z,12.67
2022-12-14T12:18:46.795Z,14.03
2022-12-14T12:24:41.652Z,11.23
2022-12-14T12:30:03.733Z,10.80
2022-12-14T12:35:15.638Z,10.63
2022-12-14T12:40:37.753Z,11.57
2022-12-14T12:45:50.354Z,12.20
2022-12-14T12:51:01.325Z,12.43
2022-12-14T12:56:06.779Z,12.23
2022-12-14T13:01:37.568Z,12.10
2022-12-14T13:06:45.602Z,11.60
2022-12-14T13:11:49.111Z,12.05
2022-12-14T13:16:51.267Z,9.77
2022-12-14T13:22:03.346Z,8.83
2022-12-14T13:27:40.738Z,9.37
2022-12-14T13:33:06.380Z,9.93
2022-12-14T13:38:33.687Z,10.17
2022-12-14T13:44:04.479Z,9.20
2022-12-14T13:49:15.304Z,9.50
2022-12-14T13:54:27.786Z,9.33
2022-12-14T13:59:37.717Z,10.03
2022-12-14T14:04:44.275Z,10.97
2022-12-14T14:09:58.685Z,10.17
2022-12-14T14:15:00.449Z,10.13
2022-12-14T14:20:26.774Z,10.33
2022-12-14T14:25:34.517Z,11.83
2022-12-14T14:30:43.152Z,11.87
2022-12-14T14:35:44.899Z,11.57
2022-12-14T14:41:16.191Z,12.20
2022-12-14T14:46:23.152Z,11.77
2022-12-14T14:51:35.221Z,10.83
2022-12-14T14:56:38.428Z,13.30
2022-12-14T15:01:45.789Z,14.13
2022-12-14T15:06:51.202Z,15.40
2022-12-14T15:12:04.215Z,14.43
2022-12-14T15:17:22.873Z,13.83
2022-12-14T15:22:30.620Z,14.80
2022-12-14T15:27:37.304Z,15.57
2022-12-14T15:32:48.074Z,17.20
2022-12-14T15:37:59.969Z,20.33
2022-12-14T15:43:18.044Z,19.23
2022-12-14T15:48:23.759Z,18.33
2022-12-14T15:53:40.846Z,17.93
2022-12-14T15:58:48.329Z,17.43
2022-12-14T16:03:58.785Z,21.17
2022-12-14T16:09:09.032Z,18.53
2022-12-14T16:14:21.891Z,18.40
2022-12-14T16:19:28.146Z,18.40
2022-12-14T16:24:31.558Z,17.23
2022-12-14T16:29:34.104Z,26.43
2022-12-14T16:34:41.158Z,23.00
2022-12-14T16:39:47.788Z,32.13
2022-12-14T16:44:53.848Z,34.00
2022-12-14T16:50:00.179Z,34.13
2022-12-14T16:55:16.256Z,37.33
2022-12-14T17:00:36.105Z,28.93
2022-12-14T17:05:42.874Z,27.20
2022-12-14T17:10:47.456Z,22.23
2022-12-14T17:16:01.093Z,20.03
2022-12-14T17:21:06.401Z,20.43
2022-12-14T17:26:28.103Z,23.10
2022-12-14T17:31:32.427Z,22.30
2022-12-14T17:36:36.417Z,22.97
2022-12-14T17:41:41.207Z,23.03
2022-12-14T17:46:44.439Z,22.27
2022-12-14T17:51:50.668Z,109.97
2022-12-14T17:56:57.004Z,23.30
2022-12-14T18:02:02.087Z,25.03
2022-12-14T18:07:06.804Z,27.63
2022-12-14T18:12:23.025Z,28.23
2022-12-14T18:17:28.186Z,25.50
2022-12-14T18:22:37.417Z,20.90
2022-12-14T18:27:39.156Z,24.43
2022-12-14T18:32:45.718Z,26.00
2022-12-14T18:37:51.090Z,21.73
2022-12-14T18:42:55.351Z,22.97
2022-12-14T18:48:02.035Z,23.53
2022-12-14T18:53:16.834Z,23.23
2022-12-14T18:58:25.442Z,23.97
2022-12-14T19:03:33.315Z,22.77
2022-12-14T19:08:38.191Z,23.63
2022-12-14T19:13:39.977Z,22.90
2022-12-14T19:18:47.878Z,25.83
2022-12-14T19:23:49.506Z,25.80
2022-12-14T19:28:53.551Z,25.60
2022-12-14T19:33:55.792Z,26.43
2022-12-14T19:38:59.066Z,24.83
2022-12-14T19:44:08.462Z,26.17
2022-12-14T19:49:14.715Z,24.07
2022-12-14T19:54:18.792Z,23.67
2022-12-14T19:59:20.473Z,23.67
2022-12-14T20:04:22.999Z,25.23
2022-12-14T20:09:27.732Z,30.07
2022-12-14T20:14:31.792Z,25.57
2022-12-14T20:19:36.670Z,25.50
2022-12-14T20:24:40.825Z,18.67
2022-12-14T20:29:44.796Z,24.67
2022-12-14T20:34:46.604Z,23.87
2022-12-14T20:39:50.248Z,23.17
2022-12-14T20:44:55.392Z,22.67
2022-12-14T20:50:01.934Z,22.90
2022-12-14T20:55:08.865Z,23.20
2022-12-14T21:00:11.236Z,22.27
2022-12-14T21:05:18.211Z,21.57
2022-12-14T21:10:25.988Z,20.37
2022-12-14T21:15:30.930Z,21.53
2022-12-14T21:20:35.011Z,20.37
2022-12-14T21:25:44.227Z,20.67
2022-12-14T21:30:48.284Z,21.03
2022-12-14T21:35:52.554Z,17.93
2022-12-14T21:41:17.802Z,21.97
2022-12-14T21:46:20.060Z,21.80
2022-12-14T21:51:24.422Z,20.77
2022-12-14T21:56:46.280Z,16.97
2022-12-14T22:01:52.962Z,20.87
2022-12-14T22:06:55.219Z,19.97
2022-12-14T22:11:59.225Z,21.37
2022-12-14T22:17:00.995Z,19.97
2022-12-14T22:22:03.454Z,20.47
2022-12-14T22:27:08.160Z,20.57
2022-12-14T22:32:11.843Z,20.27
2022-12-14T22:37:19.287Z,21.57
2022-12-14T22:42:23.249Z,20.90
2022-12-14T22:47:29.086Z,18.67
2022-12-14T22:52:33.047Z,20.07
2022-12-14T22:57:41.441Z,18.60
2022-12-14T23:02:48.990Z,19.03
2022-12-14T23:07:53.330Z,19.63
2022-12-14T23:13:20.902Z,19.70
2022-12-14T23:18:40.897Z,19.77
2022-12-14T23:24:02.719Z,20.13
2022-12-14T23:29:26.002Z,21.00
2022-12-14T23:34:47.895Z,19.30
2022-12-14T23:40:10.610Z,19.47
2022-12-14T23:45:30.861Z,21.00
2022-12-14T23:50:51.177Z,21.13
2022-12-14T23:56:12.477Z,20.03
